createdAt,value
2019-04-26T00:02:12.292Z,95236.70
2019-04-26T00:04:38.901Z,95235.53
2019-04-26T00:07:05.414Z,95237.55
2019-04-26T00:09:37.389Z,95237.16
2019-04-26T00:12:05.678Z,95247.24
2019-04-26T00:14:36.701Z,95237.23
2019-04-26T00:17:04.767Z,95239.02
2019-04-26T00:19:31.563Z,95248.39
2019-04-26T00:21:58.399Z,95249.56
2019-04-26T00:24:25.221Z,95252.16
2019-04-26T00:26:51.737Z,95255.78
2019-04-26T00:29:18.982Z,95248.51
2019-04-26T00:31:45.500Z,95251.34
2019-04-26T00:34:12.460Z,95246.15
2019-04-26T00:36:39.812Z,95249.33
2019-04-26T00:39:06.336Z,95241.47
2019-04-26T00:41:32.869Z,95239.82
2019-04-26T00:43:59.405Z,95236.27
2019-04-26T00:46:27.658Z,95235.59
2019-04-26T00:48:56.457Z,95240.13
2019-04-26T00:51:23.544Z,95237.90
2019-04-26T00:53:50.233Z,95232.11
2019-04-26T00:56:18.006Z,95236.02
2019-04-26T00:58:45.692Z,95230.31
2019-04-26T01:01:12.294Z,95228.16
2019-04-26T01:03:39.015Z,95225.48
2019-04-26T01:06:07.384Z,95217.42
2019-04-26T01:08:33.606Z,95216.81
2019-04-26T01:10:59.878Z,95217.25
2019-04-26T01:13:26.258Z,95218.20
2019-04-26T01:15:52.476Z,95221.30
2019-04-26T01:18:18.774Z,95219.58
2019-04-26T01:20:47.985Z,95215.86
2019-04-26T01:23:18.773Z,95218.46
2019-04-26T01:26:07.174Z,95220.30
2019-04-26T01:28:49.249Z,95226.89
2019-04-26T01:31:15.581Z,95225.27
2019-04-26T01:33:43.326Z,95217.17
2019-04-26T01:36:13.307Z,95214.66
2019-04-26T01:38:39.527Z,95215.91
2019-04-26T01:41:10.799Z,95217.32
2019-04-26T01:43:41.113Z,95207.70
2019-04-26T01:46:12.748Z,95217.17
2019-04-26T01:48:46.324Z,95218.50
2019-04-26T01:51:20.196Z,95212.88
2019-04-26T01:53:50.443Z,95215.98
2019-04-26T01:56:21.816Z,95208.42
2019-04-26T01:58:48.793Z,95214.48
2019-04-26T02:01:29.528Z,95216.78
2019-04-26T02:03:56.023Z,95213.90
2019-04-26T02:06:28.788Z,95212.56
2019-04-26T02:08:51.154Z,95213.69
2019-04-26T02:11:17.712Z,95215.09
2019-04-26T02:13:44.221Z,95207.95
2019-04-26T02:16:10.392Z,95202.62
2019-04-26T02:18:36.837Z,95199.35
2019-04-26T02:21:16.941Z,95194.34
2019-04-26T02:23:49.047Z,95191.96
2019-04-26T02:26:35.117Z,95191.96
2019-04-26T02:29:03.766Z,95191.89
2019-04-26T02:31:31.487Z,95188.55
2019-04-26T02:34:00.778Z,95193.88
2019-04-26T02:36:47.952Z,95187.45
2019-04-26T02:38:59.027Z,95190.70
2019-04-26T02:41:28.122Z,95194.56
2019-04-26T02:43:58.091Z,95196.47
2019-04-26T02:46:31.206Z,95190.77
2019-04-26T02:49:11.655Z,95187.79
2019-04-26T02:51:41.708Z,95188.61
2019-04-26T02:54:14.744Z,95185.88
2019-04-26T02:56:44.820Z,95173.10
2019-04-26T02:59:34.565Z,95173.75
2019-04-26T03:02:05.349Z,95165.25
2019-04-26T03:04:35.992Z,95159.63
2019-04-26T03:07:06.198Z,95163.52
2019-04-26T03:09:37.031Z,95160.39
2019-04-26T03:12:07.013Z,95168.82
2019-04-26T03:14:42.029Z,95138.54
2019-04-26T03:17:27.827Z,95138.54
2019-04-26T03:20:02.888Z,95155.45
2019-04-26T03:22:37.364Z,95158.41
2019-04-26T03:25:36.963Z,95151.46
2019-04-26T03:28:22.188Z,95152.28
2019-04-26T03:31:21.752Z,95153.02
2019-04-26T03:34:03.917Z,95157.73
2019-04-26T03:36:37.870Z,95160.11
2019-04-26T03:39:22.068Z,95156.33
2019-04-26T03:42:05.250Z,95161.08
2019-04-26T03:44:50.032Z,95162.41
2019-04-26T03:47:25.987Z,95159.64
2019-04-26T03:49:58.843Z,95159.42
2019-04-26T03:52:47.116Z,95158.16
2019-04-26T03:55:27.893Z,95163.38
2019-04-26T03:58:05.786Z,95158.27
2019-04-26T04:00:49.334Z,95159.59
2019-04-26T04:03:30.245Z,95163.27
2019-04-26T04:06:00.313Z,95166.52
2019-04-26T04:08:46.671Z,95162.45
2019-04-26T04:11:17.503Z,95165.47
2019-04-26T04:13:51.046Z,95162.19
2019-04-26T04:16:22.511Z,95166.33
2019-04-26T04:19:09.360Z,95168.87
2019-04-26T04:21:55.865Z,95170.90
2019-04-26T04:24:25.959Z,95170.47
2019-04-26T04:27:01.873Z,95177.53
2019-04-26T04:30:02.231Z,95177.02
2019-04-26T04:32:42.469Z,95174.43
2019-04-26T04:35:11.606Z,95176.19
2019-04-26T04:38:07.748Z,95174.65
2019-04-26T04:40:27.323Z,95169.93
2019-04-26T04:43:32.855Z,95169.39
2019-04-26T04:46:25.983Z,95168.39
2019-04-26T04:49:19.313Z,95172.81
2019-04-26T04:52:10.468Z,95178.92
2019-04-26T04:54:42.670Z,95187.19
2019-04-26T04:57:18.498Z,95183.96
2019-04-26T05:00:08.021Z,95182.70
2019-04-26T05:02:51.909Z,95186.29
2019-04-26T05:06:06.666Z,95185.78
2019-04-26T05:08:36.787Z,95190.36
2019-04-26T05:11:23.667Z,95193.64
2019-04-26T05:14:10.273Z,95204.77
2019-04-26T05:17:04.363Z,95210.75
2019-04-26T05:19:46.857Z,95215.37
2019-04-26T05:22:49.136Z,95222.47
2019-04-26T05:25:53.522Z,95215.52
2019-04-26T05:28:43.459Z,95220.39
2019-04-26T05:31:42.716Z,95228.23
2019-04-26T05:34:20.624Z,95229.50
2019-04-26T05:36:59.590Z,95233.08
2019-04-26T05:39:29.501Z,95243.33
2019-04-26T05:42:13.463Z,95237.80
2019-04-26T05:45:15.262Z,95236.19
2019-04-26T05:48:12.963Z,95244.58
2019-04-26T05:51:21.110Z,95247.94
2019-04-26T05:54:20.086Z,95260.30
2019-04-26T05:56:56.273Z,95259.66
2019-04-26T05:59:35.165Z,95258.32
2019-04-26T06:02:37.865Z,95276.55
2019-04-26T06:05:18.644Z,95273.45
2019-04-26T06:08:36.061Z,95272.97
2019-04-26T06:11:16.700Z,95282.72
2019-04-26T06:13:57.816Z,95289.06
2019-04-26T06:16:33.655Z,95281.77
2019-04-26T06:19:17.387Z,95283.87
2019-04-26T06:21:52.181Z,95288.22
2019-04-26T06:24:28.010Z,95292.41
2019-04-26T06:27:11.027Z,95296.19
2019-04-26T06:29:44.181Z,95306.36
2019-04-26T06:32:16.907Z,95306.55
2019-04-26T06:35:01.936Z,95305.08
2019-04-26T06:37:39.782Z,95313.77
2019-04-26T06:40:15.917Z,95317.26
2019-04-26T06:43:05.693Z,95322.66
2019-04-26T06:45:56.885Z,95320.54
2019-04-26T06:48:31.939Z,95327.52
2019-04-26T06:51:24.152Z,95321.34
2019-04-26T06:53:54.619Z,95328.40
2019-04-26T06:56:47.332Z,95332.40
2019-04-26T06:59:36.520Z,95336.27
2019-04-26T07:02:19.701Z,95329.05
2019-04-26T07:04:55.821Z,95325.64
2019-04-26T07:07:25.851Z,95315.58
2019-04-26T07:09:59.084Z,95319.44
2019-04-26T07:12:38.136Z,95312.69
2019-04-26T07:15:29.009Z,95310.95
2019-04-26T07:18:10.876Z,95312.17
2019-04-26T07:20:54.874Z,95312.92
2019-04-26T07:23:41.871Z,95311.58
2019-04-26T07:26:28.723Z,95310.56
2019-04-26T07:29:26.307Z,95314.52
2019-04-26T07:31:56.435Z,95325.36
2019-04-26T07:34:54.107Z,95325.49
2019-04-26T07:37:32.878Z,95326.77
2019-04-26T07:40:11.432Z,95322.39
2019-04-26T07:42:55.924Z,95322.91
2019-04-26T07:45:33.684Z,95325.81
2019-04-26T07:48:20.657Z,95320.69
2019-04-26T07:51:23.861Z,95321.80
2019-04-26T07:54:27.897Z,95326.50
2019-04-26T07:57:22.474Z,95324.59
2019-04-26T08:00:08.962Z,95325.48
2019-04-26T08:02:52.920Z,95326.59
2019-04-26T08:05:24.789Z,95322.50
2019-04-26T08:07:57.625Z,95319.77
2019-04-26T08:10:26.734Z,95314.26
2019-04-26T08:13:08.505Z,95316.42
2019-04-26T08:15:43.383Z,95317.75
2019-04-26T08:18:17.033Z,95317.69
2019-04-26T08:20:48.848Z,95309.12
2019-04-26T08:23:39.193Z,95315.80
2019-04-26T08:25:53.839Z,95307.93
2019-04-26T08:28:23.359Z,95312.45
2019-04-26T08:30:54.635Z,95315.72
2019-04-26T08:33:26.605Z,95316.01
2019-04-26T08:35:55.911Z,95318.61
2019-04-26T08:38:24.887Z,95318.06
2019-04-26T08:40:51.864Z,95314.27
2019-04-26T08:43:27.425Z,95304.52
2019-04-26T08:46:03.041Z,95320.78
2019-04-26T08:48:39.180Z,95320.14
2019-04-26T08:51:09.303Z,95334.97
2019-04-26T08:53:39.354Z,95334.97
2019-04-26T08:56:07.707Z,95340.72
2019-04-26T08:58:37.686Z,95334.09
2019-04-26T09:01:21.907Z,95335.78
2019-04-26T09:03:53.840Z,95335.86
2019-04-26T09:06:30.683Z,95337.67
2019-04-26T09:09:00.755Z,95334.39
2019-04-26T09:11:33.537Z,95332.95
2019-04-26T09:14:00.639Z,95336.31
2019-04-26T09:16:26.999Z,95340.95
2019-04-26T09:18:57.248Z,95346.46
2019-04-26T09:21:23.264Z,95348.39
2019-04-26T09:24:08.460Z,95355.32
2019-04-26T09:26:42.609Z,95354.93
2019-04-26T09:29:22.303Z,95351.11
2019-04-26T09:32:05.800Z,95357.33
2019-04-26T09:34:35.142Z,95357.41
2019-04-26T09:37:01.264Z,95362.30
2019-04-26T09:39:27.703Z,95353.62
2019-04-26T09:41:55.769Z,95359.45
2019-04-26T09:44:42.945Z,95361.39
2019-04-26T09:47:26.498Z,95364.45
2019-04-26T09:49:57.339Z,95361.94
2019-04-26T09:52:25.341Z,95363.53
2019-04-26T09:54:51.535Z,95365.52
2019-04-26T09:57:17.975Z,95364.27
2019-04-26T09:59:44.174Z,95356.16
2019-04-26T10:02:12.669Z,95356.95
2019-04-26T10:04:38.846Z,95358.87
2019-04-26T10:07:05.114Z,95355.55
2019-04-26T10:09:32.798Z,95354.38
2019-04-26T10:12:01.065Z,95349.78
2019-04-26T10:14:29.329Z,95343.05
2019-04-26T10:17:00.156Z,95342.55
2019-04-26T10:19:31.653Z,95353.15
2019-04-26T10:21:58.236Z,95349.23
2019-04-26T10:24:24.473Z,95352.20
2019-04-26T10:26:50.669Z,95348.77
2019-04-26T10:29:17.085Z,95358.30
2019-04-26T10:31:43.205Z,95360.05
2019-04-26T10:34:11.808Z,95360.43
2019-04-26T10:36:37.460Z,95354.10
2019-04-26T10:39:06.247Z,95352.81
2019-04-26T10:41:34.171Z,95345.25
2019-04-26T10:44:00.298Z,95348.47
2019-04-26T10:46:28.352Z,95360.78
2019-04-26T10:48:54.625Z,95359.72
2019-04-26T10:51:24.133Z,95360.52
2019-04-26T10:54:01.631Z,95365.38
2019-04-26T10:56:34.550Z,95361.73
2019-04-26T10:59:17.712Z,95356.30
2019-04-26T11:01:44.040Z,95363.34
2019-04-26T11:04:10.401Z,95352.52
2019-04-26T11:06:36.679Z,95358.72
2019-04-26T11:09:05.518Z,95361.05
2019-04-26T11:11:33.104Z,95355.56
2019-04-26T11:13:59.393Z,95361.86
2019-04-26T11:16:25.575Z,95358.47
2019-04-26T11:18:51.894Z,95350.81
2019-04-26T11:21:20.811Z,95355.47
2019-04-26T11:23:46.994Z,95348.66
2019-04-26T11:26:13.330Z,95348.20
2019-04-26T11:28:41.934Z,95347.12
2019-04-26T11:31:07.957Z,95347.36
2019-04-26T11:33:44.400Z,95343.32
2019-04-26T11:36:03.331Z,95348.00
2019-04-26T11:38:31.217Z,95354.95
2019-04-26T11:41:06.231Z,95353.11
2019-04-26T11:43:26.797Z,95343.11
2019-04-26T11:46:03.765Z,95345.22
2019-04-26T11:48:21.201Z,95345.22
2019-04-26T11:50:48.203Z,95336.25
2019-04-26T11:53:15.421Z,95337.72
2019-04-26T11:55:41.584Z,95341.02
2019-04-26T11:58:07.821Z,95345.39
2019-04-26T12:00:38.775Z,95341.02
2019-04-26T12:03:05.191Z,95339.61
2019-04-26T12:05:33.373Z,95328.97
2019-04-26T12:08:01.646Z,95331.55
2019-04-26T12:10:27.919Z,95323.74
2019-04-26T12:13:05.180Z,95332.45
2019-04-26T12:15:30.063Z,95325.52
2019-04-26T12:17:58.396Z,95344.34
2019-04-26T12:20:22.395Z,95340.56
2019-04-26T12:22:46.752Z,95343.19
2019-04-26T12:25:13.480Z,95346.95
2019-04-26T12:27:39.682Z,95351.41
2019-04-26T12:30:06.631Z,95358.11
2019-04-26T12:32:32.992Z,95353.77
2019-04-26T12:34:59.225Z,95358.13
2019-04-26T12:37:25.552Z,95355.30
2019-04-26T12:39:51.843Z,95362.14
2019-04-26T12:42:18.062Z,95363.68
2019-04-26T12:44:52.274Z,95364.08
2019-04-26T12:47:20.435Z,95351.58
2019-04-26T12:49:46.558Z,95360.34
2019-04-26T12:52:13.039Z,95360.44
2019-04-26T12:54:42.909Z,95355.27
2019-04-26T12:57:07.451Z,95368.29
2019-04-26T12:59:43.661Z,95354.14
2019-04-26T13:02:05.847Z,95363.46
2019-04-26T13:04:36.016Z,95362.20
2019-04-26T13:07:06.921Z,95363.14
2019-04-26T13:09:35.687Z,95364.83
2019-04-26T13:12:03.705Z,95365.06
2019-04-26T13:14:32.053Z,95373.83
2019-04-26T13:17:02.823Z,95374.35
2019-04-26T13:19:29.163Z,95365.91
2019-04-26T13:21:55.289Z,95376.63
2019-04-26T13:24:21.459Z,95367.98
2019-04-26T13:26:50.037Z,95365.98
2019-04-26T13:29:15.841Z,95364.09
2019-04-26T13:31:42.023Z,95351.16
2019-04-26T13:34:08.364Z,95342.83
2019-04-26T13:36:34.479Z,95346.64
2019-04-26T13:39:00.714Z,95342.92
2019-04-26T13:41:28.018Z,95354.90
2019-04-26T13:43:57.127Z,95358.35
2019-04-26T13:46:42.791Z,95359.41
2019-04-26T13:49:14.226Z,95366.95
2019-04-26T13:51:40.879Z,95367.28
2019-04-26T13:54:07.187Z,95378.87
2019-04-26T13:56:35.924Z,95374.59
2019-04-26T13:59:01.411Z,95385.52
2019-04-26T14:01:27.729Z,95388.09
2019-04-26T14:03:54.962Z,95400.09
2019-04-26T14:06:21.268Z,95388.36
2019-04-26T14:08:47.539Z,95378.53
2019-04-26T14:11:13.690Z,95372.72
2019-04-26T14:13:41.096Z,95380.09
2019-04-26T14:16:08.993Z,95383.60
2019-04-26T14:18:38.982Z,95396.41
2019-04-26T14:21:04.197Z,95384.84
2019-04-26T14:23:35.369Z,95391.27
2019-04-26T14:26:05.139Z,95393.33
2019-04-26T14:28:31.702Z,95400.44
2019-04-26T14:30:58.029Z,95407.75
2019-04-26T14:33:27.080Z,95417.22
2019-04-26T14:36:22.637Z,95419.62
2019-04-26T14:38:49.137Z,95423.20
2019-04-26T14:41:21.754Z,95416.20
2019-04-26T14:43:43.577Z,95417.00
2019-04-26T14:46:10.539Z,95410.22
2019-04-26T14:48:40.612Z,95401.23
2019-04-26T14:51:08.287Z,95402.39
2019-04-26T14:53:36.308Z,95415.86
2019-04-26T14:56:02.262Z,95428.86
2019-04-26T14:58:30.292Z,95423.69
2019-04-26T15:00:58.806Z,95422.44
2019-04-26T15:03:29.965Z,95421.84
2019-04-26T15:06:07.119Z,95426.00
2019-04-26T15:08:34.307Z,95421.01
2019-04-26T15:11:02.192Z,95419.08
2019-04-26T15:13:28.718Z,95419.08
2019-04-26T15:15:55.186Z,95422.98
2019-04-26T15:18:22.492Z,95429.83
2019-04-26T15:20:49.036Z,95420.34
2019-04-26T15:23:15.387Z,95422.17
2019-04-26T15:25:48.077Z,95433.16
2019-04-26T15:28:12.021Z,95430.61
2019-04-26T15:30:43.381Z,95434.55
2019-04-26T15:33:09.002Z,95429.53
2019-04-26T15:35:35.884Z,95434.89
2019-04-26T15:38:02.492Z,95447.66
2019-04-26T15:40:47.366Z,95447.22
2019-04-26T15:43:32.647Z,95458.80
2019-04-26T15:46:12.457Z,95463.25
2019-04-26T15:48:55.766Z,95476.58
2019-04-26T15:51:27.172Z,95490.25
2019-04-26T15:53:53.076Z,95496.47
2019-04-26T15:56:22.240Z,95497.84
2019-04-26T15:58:49.181Z,95508.20
2019-04-26T16:01:16.501Z,95504.30
2019-04-26T16:03:44.625Z,95511.28
2019-04-26T16:06:12.590Z,95516.89
2019-04-26T16:08:42.726Z,95518.06
2019-04-26T16:11:11.217Z,95517.47
2019-04-26T16:13:35.491Z,95527.99
2019-04-26T16:16:05.017Z,95530.76
2019-04-26T16:18:32.363Z,95528.81
2019-04-26T16:20:58.749Z,95535.02
2019-04-26T16:23:38.116Z,95542.00
2019-04-26T16:25:53.115Z,95549.91
2019-04-26T16:28:31.042Z,95552.48
2019-04-26T16:31:02.528Z,95554.78
2019-04-26T16:33:34.543Z,95557.66
2019-04-26T16:36:02.557Z,95558.09
2019-04-26T16:38:34.606Z,95543.55
2019-04-26T16:41:03.263Z,95539.25
2019-04-26T16:43:39.523Z,95548.78
2019-04-26T16:45:58.559Z,95558.59
2019-04-26T16:48:25.888Z,95565.42
2019-04-26T16:50:53.223Z,95564.69
2019-04-26T16:53:41.430Z,95576.77
2019-04-26T16:55:52.142Z,95577.47
2019-04-26T16:58:16.353Z,95591.05
2019-04-26T17:00:51.611Z,95581.00
2019-04-26T17:03:11.436Z,95583.20
2019-04-26T17:05:47.825Z,95581.23
2019-04-26T17:08:10.189Z,95580.59
2019-04-26T17:10:34.351Z,95588.53
2019-04-26T17:13:00.638Z,95598.13
2019-04-26T17:15:27.022Z,95599.55
2019-04-26T17:17:53.396Z,95608.30
2019-04-26T17:20:20.819Z,95613.29
2019-04-26T17:23:00.779Z,95623.07
2019-04-26T17:25:37.211Z,95630.77
2019-04-26T17:28:04.768Z,95636.72
2019-04-26T17:30:34.554Z,95646.20
2019-04-26T17:32:59.868Z,95647.69
2019-04-26T17:35:26.190Z,95648.53
2019-04-26T17:37:52.327Z,95644.48
2019-04-26T17:40:23.435Z,95646.27
2019-04-26T17:42:47.036Z,95647.12
2019-04-26T17:45:13.553Z,95661.30
2019-04-26T17:47:41.822Z,95649.53
2019-04-26T17:50:08.272Z,95648.33
2019-04-26T17:52:36.002Z,95643.69
2019-04-26T17:55:07.746Z,95651.28
2019-04-26T17:57:36.725Z,95649.95
2019-04-26T18:00:07.831Z,95651.27
2019-04-26T18:02:41.191Z,95645.44
2019-04-26T18:05:03.231Z,95652.17
2019-04-26T18:07:42.404Z,95668.77
2019-04-26T18:09:56.966Z,95670.70
2019-04-26T18:12:24.500Z,95658.84
2019-04-26T18:14:50.870Z,95660.91
2019-04-26T18:17:25.070Z,95663.81
2019-04-26T18:19:53.285Z,95675.45
2019-04-26T18:22:37.898Z,95700.30
2019-04-26T18:25:11.252Z,95701.30
2019-04-26T18:27:38.412Z,95704.81
2019-04-26T18:30:11.399Z,95697.19
2019-04-26T18:32:42.137Z,95723.51
2019-04-26T18:35:04.212Z,95712.98
2019-04-26T18:37:30.457Z,95721.59
2019-04-26T18:39:57.512Z,95728.58
2019-04-26T18:42:27.046Z,95724.11
2019-04-26T18:44:54.002Z,95730.91
2019-04-26T18:47:28.867Z,95750.42
2019-04-26T18:50:00.172Z,95751.58
2019-04-26T18:52:28.460Z,95766.11
2019-04-26T18:54:56.589Z,95777.81
2019-04-26T18:57:23.845Z,95791.04
2019-04-26T18:59:51.727Z,95798.13
2019-04-26T19:02:19.910Z,95794.66
2019-04-26T19:04:47.958Z,95785.58
2019-04-26T19:07:15.919Z,95790.36
2019-04-26T19:09:56.766Z,95793.15
2019-04-26T19:12:12.535Z,95811.11
2019-04-26T19:15:04.274Z,95813.72
2019-04-26T19:17:34.299Z,95822.63
2019-04-26T19:20:14.826Z,95823.75
2019-04-26T19:22:46.543Z,95833.50
2019-04-26T19:25:20.917Z,95840.42
2019-04-26T19:27:48.090Z,95838.95
2019-04-26T19:30:09.145Z,95843.42
2019-04-26T19:32:39.672Z,95837.98
2019-04-26T19:35:07.001Z,95844.58
2019-04-26T19:37:36.765Z,95842.75
2019-04-26T19:40:02.946Z,95852.30
2019-04-26T19:42:32.279Z,95850.66
2019-04-26T19:45:11.843Z,95857.57
2019-04-26T19:47:28.877Z,95867.92
2019-04-26T19:50:03.117Z,95876.84
2019-04-26T19:52:39.493Z,95882.91
2019-04-26T19:55:24.212Z,95891.97
2019-04-26T19:58:12.191Z,95888.50
2019-04-26T20:00:38.538Z,95899.53
2019-04-26T20:03:04.250Z,95905.95
2019-04-26T20:05:31.980Z,95922.41
2019-04-26T20:08:02.378Z,95923.72
2019-04-26T20:10:26.577Z,95933.58
2019-04-26T20:12:53.018Z,95935.88
2019-04-26T20:15:25.866Z,95922.33
2019-04-26T20:17:52.544Z,95921.78
2019-04-26T20:20:19.371Z,95896.01
2019-04-26T20:22:43.891Z,95899.11
2019-04-26T20:25:11.915Z,95890.86
2019-04-26T20:27:38.160Z,95878.14
2019-04-26T20:30:08.902Z,95873.28
2019-04-26T20:32:37.035Z,95865.84
2019-04-26T20:35:08.887Z,95879.14
2019-04-26T20:37:35.127Z,95891.31
2019-04-26T20:40:17.687Z,95887.66
2019-04-26T20:42:31.643Z,95879.76
2019-04-26T20:44:58.046Z,95871.02
2019-04-26T20:47:24.538Z,95861.92
2019-04-26T20:50:00.762Z,95866.89
2019-04-26T20:52:21.471Z,95876.80
2019-04-26T20:54:51.100Z,95871.68
2019-04-26T20:57:15.446Z,95859.29
2019-04-26T20:59:43.351Z,95852.51
2019-04-26T21:02:09.677Z,95866.16
2019-04-26T21:04:38.459Z,95864.87
2019-04-26T21:07:06.674Z,95859.09
2019-04-26T21:09:36.415Z,95864.69
2019-04-26T21:12:01.914Z,95865.23
2019-04-26T21:14:28.525Z,95858.79
2019-04-26T21:16:54.687Z,95863.35
2019-04-26T21:19:20.895Z,95853.47
2019-04-26T21:21:49.800Z,95850.53
2019-04-26T21:24:19.705Z,95849.72
2019-04-26T21:27:04.431Z,95846.98
2019-04-26T21:29:52.469Z,95852.89
2019-04-26T21:32:26.734Z,95845.67
2019-04-26T21:34:56.448Z,95842.22
2019-04-26T21:37:24.456Z,95846.94
2019-04-26T21:40:03.800Z,95848.41
2019-04-26T21:42:33.364Z,95843.65
2019-04-26T21:44:59.834Z,95852.48
2019-04-26T21:47:27.452Z,95851.16
2019-04-26T21:49:58.901Z,95850.53
2019-04-26T21:52:27.547Z,95854.63
2019-04-26T21:54:53.112Z,95849.29
2019-04-26T21:57:25.043Z,95842.41
2019-04-26T21:59:47.032Z,95836.84
2019-04-26T22:02:14.068Z,95834.20
2019-04-26T22:04:40.274Z,95827.44
2019-04-26T22:07:07.819Z,95827.44
2019-04-26T22:09:43.047Z,95828.08
2019-04-26T22:12:12.791Z,95827.75
2019-04-26T22:14:43.386Z,95854.52
2019-04-26T22:17:16.340Z,95868.77
2019-04-26T22:20:06.982Z,95873.85
2019-04-26T22:22:48.149Z,95875.91
2019-04-26T22:25:15.956Z,95888.77
2019-04-26T22:27:43.677Z,95880.22
2019-04-26T22:30:13.331Z,95882.49
2019-04-26T22:32:39.662Z,95876.72
2019-04-26T22:35:05.987Z,95871.97
2019-04-26T22:37:33.707Z,95873.58
2019-04-26T22:40:00.072Z,95865.68
2019-04-26T22:42:26.743Z,95856.47
2019-04-26T22:44:54.938Z,95854.28
2019-04-26T22:47:26.136Z,95855.45
2019-04-26T22:49:52.412Z,95859.70
2019-04-26T22:55:43.592Z,95874.50
2019-04-26T22:58:09.971Z,95876.69
2019-04-26T23:00:38.312Z,95874.53
2019-04-26T23:03:07.197Z,95872.27
2019-04-26T23:05:37.352Z,95874.74
2019-04-26T23:08:03.346Z,95877.52
2019-04-26T23:10:33.945Z,95876.50
2019-04-26T23:13:07.419Z,95874.02
2019-04-26T23:15:43.139Z,95872.82
2019-04-26T23:18:17.083Z,95875.09
2019-04-26T23:21:03.427Z,95871.15
2019-04-26T23:23:31.054Z,95877.39
2019-04-26T23:25:57.437Z,95871.51
2019-04-26T23:28:23.735Z,95869.98
2019-04-26T23:30:53.114Z,95875.23
2019-04-26T23:33:19.561Z,95875.45
2019-04-26T23:35:47.591Z,95877.58
2019-04-26T23:38:13.795Z,95878.74
2019-04-26T23:40:39.975Z,95882.69
2019-04-26T23:43:06.257Z,95886.16
2019-04-26T23:45:33.330Z,95880.90
2019-04-26T23:47:59.728Z,95871.21
2019-04-26T23:50:29.470Z,95860.69
2019-04-26T23:52:54.053Z,95874.17
2019-04-26T23:55:20.202Z,95869.83
2019-04-26T23:57:46.424Z,95855.87
